createdAt,value
2023-04-30T00:02:39.706Z,100795.31
2023-04-30T00:05:46.382Z,100795.34
2023-04-30T00:08:51.829Z,100799.56
2023-04-30T00:11:57.109Z,100815.72
2023-04-30T00:15:02.666Z,100809.78
2023-04-30T00:18:08.214Z,100820.56
2023-04-30T00:21:15.068Z,100820.72
2023-04-30T00:24:20.132Z,100825.66
2023-04-30T00:27:25.232Z,100827.34
2023-04-30T00:30:30.445Z,100832.53
2023-04-30T00:33:36.125Z,100839.28
2023-04-30T00:36:45.087Z,100836.78
2023-04-30T00:39:50.510Z,100845.22
2023-04-30T00:42:55.962Z,100835.91
2023-04-30T00:46:01.338Z,100841.81
2023-04-30T00:49:06.694Z,100856.22
2023-04-30T00:52:15.506Z,100856.94
2023-04-30T00:55:21.680Z,100861.09
2023-04-30T00:58:27.051Z,100862.81
2023-04-30T01:01:32.659Z,100859.53
2023-04-30T01:04:37.869Z,100869.66
2023-04-30T01:07:46.333Z,100862.81
2023-04-30T01:10:55.773Z,100870.44
2023-04-30T01:14:09.433Z,100878.13
2023-04-30T01:17:22.350Z,100887.38
2023-04-30T01:20:29.320Z,100884.81
2023-04-30T01:23:59.067Z,100888.22
2023-04-30T01:27:27.692Z,100888.19
2023-04-30T01:30:35.300Z,100890.84
2023-04-30T01:33:40.874Z,100882.38
2023-04-30T01:36:55.666Z,100885.72
2023-04-30T01:40:10.885Z,100894.19
2023-04-30T01:43:21.848Z,100896.63
2023-04-30T01:46:30.546Z,100889.97
2023-04-30T01:49:44.336Z,100887.34
2023-04-30T01:52:51.974Z,100898.34
2023-04-30T01:56:01.073Z,100894.94
2023-04-30T01:59:07.570Z,100895.03
2023-04-30T02:02:16.138Z,100900.00
2023-04-30T02:05:21.739Z,100904.22
2023-04-30T02:08:27.300Z,100906.88
2023-04-30T02:11:32.330Z,100898.44
2023-04-30T02:14:37.399Z,100903.50
2023-04-30T02:17:44.085Z,100917.88
2023-04-30T02:20:49.903Z,100913.59
2023-04-30T02:23:55.712Z,100916.19
2023-04-30T02:27:01.310Z,100912.78
2023-04-30T02:30:07.699Z,100929.75
2023-04-30T02:33:15.177Z,100919.63
2023-04-30T02:36:20.198Z,100919.72
2023-04-30T02:39:25.508Z,100929.84
2023-04-30T02:42:30.616Z,100928.97
2023-04-30T02:45:35.856Z,100927.28
2023-04-30T02:48:42.497Z,100930.66
2023-04-30T02:51:47.686Z,100934.81
2023-04-30T02:54:52.936Z,100936.56
2023-04-30T02:57:58.387Z,100939.13
2023-04-30T03:01:03.441Z,100949.34
2023-04-30T03:04:09.985Z,100951.94
2023-04-30T03:07:15.176Z,100956.13
2023-04-30T03:10:20.458Z,100961.22
2023-04-30T03:13:26.872Z,100962.06
2023-04-30T03:16:32.291Z,100963.69
2023-04-30T03:19:38.869Z,100967.97
2023-04-30T03:22:44.167Z,100973.03
2023-04-30T03:25:49.326Z,100979.78
2023-04-30T03:28:55.845Z,100989.94
2023-04-30T03:32:01.991Z,100986.53
2023-04-30T03:35:09.601Z,100990.78
2023-04-30T03:38:15.993Z,100994.16
2023-04-30T03:41:21.641Z,100999.22
2023-04-30T03:44:26.855Z,100999.25
2023-04-30T03:47:32.256Z,101000.94
2023-04-30T03:50:38.865Z,100995.00
2023-04-30T03:53:44.001Z,101009.34
2023-04-30T03:56:49.438Z,101013.59
2023-04-30T03:59:55.112Z,101006.84
2023-04-30T04:03:00.640Z,101018.66
2023-04-30T04:06:08.401Z,101022.06
2023-04-30T04:09:14.617Z,101014.47
2023-04-30T04:12:20.921Z,101019.53
2023-04-30T04:15:26.042Z,101032.16
2023-04-30T04:18:31.607Z,101035.53
2023-04-30T04:21:38.793Z,101030.47
2023-04-30T04:24:51.263Z,101029.63
2023-04-30T04:27:59.147Z,101038.03
2023-04-30T04:31:04.383Z,101039.75
2023-04-30T04:34:09.862Z,101037.19
2023-04-30T04:37:17.663Z,101042.28
2023-04-30T04:40:22.946Z,101038.91
2023-04-30T04:43:28.067Z,101052.41
2023-04-30T04:46:33.834Z,101049.06
2023-04-30T04:49:39.938Z,101049.06
2023-04-30T04:52:46.476Z,101055.78
2023-04-30T04:55:53.982Z,101069.28
2023-04-30T04:58:59.734Z,101077.72
2023-04-30T05:02:04.978Z,101070.13
2023-04-30T05:05:11.080Z,101070.13
2023-04-30T05:08:17.565Z,101076.84
2023-04-30T05:11:24.328Z,101079.38
2023-04-30T05:14:30.384Z,101088.66
2023-04-30T05:17:35.524Z,101082.72
2023-04-30T05:20:40.565Z,101089.47
2023-04-30T05:23:47.434Z,101098.75
2023-04-30T05:26:52.570Z,101097.00
2023-04-30T05:29:57.689Z,101100.41
2023-04-30T05:33:02.757Z,101108.84
2023-04-30T05:36:08.485Z,101117.31
2023-04-30T05:39:15.228Z,101111.38
2023-04-30T05:42:20.291Z,101115.63
2023-04-30T05:45:25.328Z,101118.09
2023-04-30T05:48:30.473Z,101118.09
2023-04-30T05:51:35.869Z,101127.41
2023-04-30T05:54:42.376Z,101136.66
2023-04-30T05:57:47.496Z,101139.22
2023-04-30T06:00:53.179Z,101134.16
2023-04-30T06:03:58.716Z,101140.06
2023-04-30T06:07:03.805Z,101137.50
2023-04-30T06:10:12.752Z,101145.13
2023-04-30T06:13:18.021Z,101137.47
2023-04-30T06:16:23.168Z,101151.81
2023-04-30T06:19:28.275Z,101153.50
2023-04-30T06:22:33.467Z,101153.44
2023-04-30T06:25:40.533Z,101155.16
2023-04-30T06:28:46.354Z,101164.56
2023-04-30T06:31:51.723Z,101166.25
2023-04-30T06:34:57.292Z,101168.78
2023-04-30T06:38:02.392Z,101164.44
2023-04-30T06:41:08.939Z,101175.41
2023-04-30T06:44:14.639Z,101172.81
2023-04-30T06:47:19.750Z,101180.38
2023-04-30T06:50:25.035Z,101176.13
2023-04-30T06:53:30.259Z,101188.84
2023-04-30T06:56:36.835Z,101182.13
2023-04-30T06:59:41.920Z,101186.28
2023-04-30T07:02:48.130Z,101179.25
2023-04-30T07:05:54.195Z,101198.56
2023-04-30T07:08:59.309Z,101189.22
2023-04-30T07:12:06.013Z,101198.44
2023-04-30T07:15:11.766Z,101189.88
2023-04-30T07:18:17.298Z,101199.72
2023-04-30T07:21:22.805Z,101209.78
2023-04-30T07:24:27.889Z,101209.03
2023-04-30T07:27:34.457Z,101216.63
2023-04-30T07:30:39.999Z,101211.41
2023-04-30T07:33:45.222Z,101206.28
2023-04-30T07:36:50.518Z,101223.97
2023-04-30T07:39:56.256Z,101229.13
2023-04-30T07:43:02.991Z,101225.50
2023-04-30T07:46:08.192Z,101237.31
2023-04-30T07:49:13.282Z,101236.53
2023-04-30T07:52:18.627Z,101247.56
2023-04-30T07:55:24.236Z,101237.38
2023-04-30T07:58:30.767Z,101257.69
2023-04-30T08:01:36.117Z,101247.56
2023-04-30T08:04:41.466Z,101251.59
2023-04-30T08:07:46.593Z,101266.66
2023-04-30T08:10:51.656Z,101269.44
2023-04-30T08:13:58.143Z,101265.13
2023-04-30T08:17:03.708Z,101267.41
2023-04-30T08:20:09.647Z,101266.78
2023-04-30T08:23:16.893Z,101279.41
2023-04-30T08:26:22.341Z,101289.44
2023-04-30T08:29:28.973Z,101288.56
2023-04-30T08:32:37.104Z,101291.91
2023-04-30T08:35:42.208Z,101294.22
2023-04-30T08:38:47.261Z,101307.09
2023-04-30T08:41:57.025Z,101306.16
2023-04-30T08:45:03.905Z,101309.63
2023-04-30T08:48:12.415Z,101315.41
2023-04-30T08:51:17.600Z,101319.66
2023-04-30T08:54:23.003Z,101317.13
2023-04-30T08:57:28.446Z,101329.66
2023-04-30T09:00:35.334Z,101343.06
2023-04-30T09:03:40.937Z,101334.88
2023-04-30T09:06:46.844Z,101333.16
2023-04-30T09:09:55.309Z,101339.81
2023-04-30T09:13:01.337Z,101350.13
2023-04-30T09:16:08.706Z,101350.88
2023-04-30T09:19:25.420Z,101356.69
2023-04-30T09:22:30.823Z,101346.63
2023-04-30T09:25:41.742Z,101349.88
2023-04-30T09:28:57.699Z,101359.00
2023-04-30T09:32:11.810Z,101366.78
2023-04-30T09:35:32.081Z,101369.31
2023-04-30T09:38:37.197Z,101361.59
2023-04-30T09:41:42.448Z,101361.69
2023-04-30T09:44:47.937Z,101381.00
2023-04-30T09:48:02.764Z,101373.22
2023-04-30T09:51:18.135Z,101368.81
2023-04-30T09:54:24.573Z,101369.50
2023-04-30T09:57:36.290Z,101370.34
2023-04-30T10:00:42.287Z,101384.53
2023-04-30T10:03:49.458Z,101374.31
2023-04-30T10:06:57.122Z,101366.38
2023-04-30T10:10:09.197Z,101373.19
2023-04-30T10:13:18.833Z,101371.53
2023-04-30T10:16:31.823Z,101385.16
2023-04-30T10:19:41.754Z,101393.44
2023-04-30T10:22:47.735Z,101387.50
2023-04-30T10:25:53.524Z,101389.09
2023-04-30T10:29:01.036Z,101382.88
2023-04-30T10:32:07.220Z,101385.25
2023-04-30T10:35:17.454Z,101387.66
2023-04-30T10:38:25.274Z,101387.53
2023-04-30T10:41:30.642Z,101402.13
2023-04-30T10:44:36.211Z,101397.81
2023-04-30T10:47:45.716Z,101409.38
2023-04-30T10:50:53.157Z,101401.34
2023-04-30T10:53:58.515Z,101392.84
2023-04-30T10:57:14.551Z,101405.59
2023-04-30T11:00:27.583Z,101411.41
2023-04-30T11:03:33.563Z,101406.06
2023-04-30T11:07:04.779Z,101415.47
2023-04-30T11:10:10.796Z,101406.63
2023-04-30T11:13:17.442Z,101417.50
2023-04-30T11:16:30.557Z,101405.44
2023-04-30T11:19:36.227Z,101408.38
2023-04-30T11:22:42.972Z,101426.75
2023-04-30T11:25:49.024Z,101442.31
2023-04-30T11:28:57.521Z,101432.94
2023-04-30T11:32:02.855Z,101436.31
2023-04-30T11:35:08.875Z,101435.88
2023-04-30T11:38:16.459Z,101458.06
2023-04-30T11:41:23.538Z,101461.38
2023-04-30T11:44:28.802Z,101469.66
2023-04-30T11:47:44.548Z,101485.81
2023-04-30T11:50:49.735Z,101473.25
2023-04-30T11:53:56.201Z,101469.94
2023-04-30T11:57:04.361Z,101470.63
2023-04-30T12:00:17.102Z,101462.69
2023-04-30T12:03:22.531Z,101459.22
2023-04-30T12:06:29.326Z,101467.72
2023-04-30T12:09:50.786Z,101468.34
2023-04-30T12:12:56.160Z,101471.50
2023-04-30T12:16:03.043Z,101456.94
2023-04-30T12:19:09.966Z,101454.91
2023-04-30T12:22:15.197Z,101454.81
2023-04-30T12:25:23.167Z,101455.00
2023-04-30T12:28:28.817Z,101461.25
2023-04-30T12:31:34.874Z,101455.44
2023-04-30T12:34:40.384Z,101457.59
2023-04-30T12:37:46.223Z,101456.69
2023-04-30T12:40:52.840Z,101459.94
2023-04-30T12:44:19.061Z,101457.84
2023-04-30T12:47:27.174Z,101466.47
2023-04-30T12:50:32.343Z,101476.56
2023-04-30T12:53:47.225Z,101460.50
2023-04-30T12:57:02.354Z,101472.50
2023-04-30T13:00:10.063Z,101475.84
2023-04-30T13:03:15.985Z,101487.16
2023-04-30T13:06:22.534Z,101474.25
2023-04-30T13:09:28.964Z,101473.06
2023-04-30T13:12:35.600Z,101481.63
2023-04-30T13:15:41.178Z,101471.66
2023-04-30T13:18:47.018Z,101487.03
2023-04-30T13:21:52.412Z,101482.75
2023-04-30T13:24:57.866Z,101498.13
2023-04-30T13:28:04.564Z,101489.50
2023-04-30T13:31:09.720Z,101477.69
2023-04-30T13:34:15.919Z,101487.84
2023-04-30T13:37:21.118Z,101494.72
2023-04-30T13:40:26.294Z,101485.88
2023-04-30T13:43:32.967Z,101491.50
2023-04-30T13:46:38.143Z,101505.38
2023-04-30T13:49:43.454Z,101497.41
2023-04-30T13:52:48.530Z,101503.25
2023-04-30T13:55:53.853Z,101499.69
2023-04-30T13:59:00.393Z,101506.22
2023-04-30T14:02:05.715Z,101500.84
2023-04-30T14:05:11.470Z,101501.06
2023-04-30T14:08:16.815Z,101500.09
2023-04-30T14:11:22.783Z,101491.06
2023-04-30T14:14:29.365Z,101495.19
2023-04-30T14:17:34.585Z,101504.47
2023-04-30T14:20:40.397Z,101503.47
2023-04-30T14:23:49.573Z,101498.31
2023-04-30T14:26:54.651Z,101500.59
2023-04-30T14:30:01.193Z,101500.84
2023-04-30T14:33:07.005Z,101504.78
2023-04-30T14:36:14.052Z,101513.16
2023-04-30T14:39:19.280Z,101498.63
2023-04-30T14:42:24.413Z,101497.31
2023-04-30T14:45:31.404Z,101499.34
2023-04-30T14:48:36.626Z,101500.59
2023-04-30T14:51:43.714Z,101502.09
2023-04-30T14:54:48.885Z,101494.72
2023-04-30T14:57:54.378Z,101494.25
2023-04-30T15:01:01.286Z,101504.28
2023-04-30T15:04:07.216Z,101505.22
2023-04-30T15:07:13.076Z,101505.06
2023-04-30T15:10:18.558Z,101506.81
2023-04-30T15:13:23.679Z,101503.44
2023-04-30T15:16:30.384Z,101499.19
2023-04-30T15:19:35.504Z,101508.72
2023-04-30T15:22:40.702Z,101509.56
2023-04-30T15:25:45.873Z,101509.56
2023-04-30T15:28:50.993Z,101518.94
2023-04-30T15:31:59.704Z,101517.06
2023-04-30T15:35:05.200Z,101511.13
2023-04-30T15:38:10.339Z,101508.53
2023-04-30T15:41:15.473Z,101513.91
2023-04-30T15:44:20.571Z,101516.06
2023-04-30T15:47:27.335Z,101510.81
2023-04-30T15:50:32.596Z,101502.44
2023-04-30T15:53:37.684Z,101522.88
2023-04-30T15:56:43.202Z,101510.25
2023-04-30T15:59:48.438Z,101500.53
2023-04-30T16:02:54.976Z,101506.91
2023-04-30T16:06:01.049Z,101514.53
2023-04-30T16:09:08.972Z,101512.03
2023-04-30T16:12:15.207Z,101508.75
2023-04-30T16:15:20.525Z,101508.75
2023-04-30T16:18:27.631Z,101511.25
2023-04-30T16:21:34.559Z,101516.44
2023-04-30T16:24:41.027Z,101517.09
2023-04-30T16:27:46.770Z,101519.72
2023-04-30T16:30:52.063Z,101516.50
2023-04-30T16:33:58.843Z,101522.41
2023-04-30T16:37:03.996Z,101531.03
2023-04-30T16:40:09.894Z,101528.69
2023-04-30T16:43:15.036Z,101527.88
2023-04-30T16:46:20.220Z,101526.91
2023-04-30T16:49:26.800Z,101529.63
2023-04-30T16:52:33.312Z,101526.22
2023-04-30T16:55:38.425Z,101527.09
2023-04-30T16:58:43.665Z,101528.75
2023-04-30T17:01:49.048Z,101533.13
2023-04-30T17:04:55.591Z,101539.97
2023-04-30T17:08:00.632Z,101528.91
2023-04-30T17:11:06.432Z,101534.09
2023-04-30T17:14:15.473Z,101535.91
2023-04-30T17:17:20.868Z,101533.44
2023-04-30T17:20:27.817Z,101539.44
2023-04-30T17:23:33.130Z,101538.56
2023-04-30T17:26:38.671Z,101537.78
2023-04-30T17:29:44.331Z,101548.00
2023-04-30T17:32:49.477Z,101538.03
2023-04-30T17:35:56.399Z,101543.84
2023-04-30T17:39:05.600Z,101544.75
2023-04-30T17:42:10.976Z,101545.53
2023-04-30T17:45:16.186Z,101555.19
2023-04-30T17:48:27.459Z,101552.50
2023-04-30T17:51:33.900Z,101552.72
2023-04-30T17:54:39.208Z,101565.63
2023-04-30T17:57:44.499Z,101568.34
2023-04-30T18:00:49.792Z,101571.75
2023-04-30T18:03:55.638Z,101565.75
2023-04-30T18:07:02.211Z,101569.31
2023-04-30T18:10:08.896Z,101570.25
2023-04-30T18:13:14.210Z,101574.59
2023-04-30T18:16:19.775Z,101576.25
2023-04-30T18:19:25.520Z,101573.78
2023-04-30T18:22:32.151Z,101578.19
2023-04-30T18:25:38.355Z,101578.31
2023-04-30T18:28:43.614Z,101578.25
2023-04-30T18:31:49.570Z,101584.25
2023-04-30T18:34:54.949Z,101590.28
2023-04-30T18:38:02.604Z,101590.50
2023-04-30T18:41:10.693Z,101591.47
2023-04-30T18:44:15.949Z,101585.41
2023-04-30T18:47:21.290Z,101600.03
2023-04-30T18:50:28.030Z,101607.69
2023-04-30T18:53:35.106Z,101604.34
2023-04-30T18:56:40.011Z,101608.53
2023-04-30T18:59:45.187Z,101608.63
2023-04-30T19:02:50.526Z,101612.22
2023-04-30T19:05:57.551Z,101613.03
2023-04-30T19:09:04.928Z,101619.13
2023-04-30T19:12:10.829Z,101620.00
2023-04-30T19:15:18.007Z,101619.06
2023-04-30T19:18:24.619Z,101625.13
2023-04-30T19:21:31.128Z,101622.56
2023-04-30T19:24:37.710Z,101624.44
2023-04-30T19:27:44.186Z,101615.91
2023-04-30T19:30:51.951Z,101625.34
2023-04-30T19:34:00.581Z,101634.72
2023-04-30T19:37:06.096Z,101628.72
2023-04-30T19:40:15.857Z,101629.59
2023-04-30T19:43:22.511Z,101637.38
2023-04-30T19:46:27.662Z,101635.66
2023-04-30T19:49:34.829Z,101636.59
2023-04-30T19:52:40.237Z,101638.13
2023-04-30T19:55:50.130Z,101635.78
2023-04-30T19:58:55.325Z,101634.94
2023-04-30T20:02:01.270Z,101640.88
2023-04-30T20:05:07.480Z,101641.03
2023-04-30T20:08:14.283Z,101633.34
2023-04-30T20:11:22.808Z,101632.50
2023-04-30T20:14:28.021Z,101635.97
2023-04-30T20:17:34.061Z,101636.81
2023-04-30T20:20:39.429Z,101645.41
2023-04-30T20:23:44.676Z,101636.06
2023-04-30T20:26:54.380Z,101639.53
2023-04-30T20:29:59.523Z,101642.97
2023-04-30T20:33:05.079Z,101639.50
2023-04-30T20:36:10.635Z,101637.03
2023-04-30T20:39:15.982Z,101647.13
2023-04-30T20:42:22.693Z,101642.28
2023-04-30T20:45:28.274Z,101646.53
2023-04-30T20:48:33.540Z,101645.72
2023-04-30T20:51:40.221Z,101640.47
2023-04-30T20:54:45.477Z,101648.09
2023-04-30T20:57:52.176Z,101641.44
2023-04-30T21:00:57.367Z,101644.75
2023-04-30T21:04:02.545Z,101654.16
2023-04-30T21:07:07.664Z,101653.31
2023-04-30T21:10:14.365Z,101649.97
2023-04-30T21:13:20.890Z,101641.56
2023-04-30T21:16:27.340Z,101644.13
2023-04-30T21:19:33.767Z,101648.34
2023-04-30T21:22:40.158Z,101649.22
2023-04-30T21:25:45.359Z,101654.41
2023-04-30T21:28:52.701Z,101644.16
2023-04-30T21:31:58.441Z,101651.84
2023-04-30T21:35:03.864Z,101646.81
2023-04-30T21:38:11.307Z,101652.66
2023-04-30T21:41:16.935Z,101652.72
2023-04-30T21:44:23.444Z,101657.00
2023-04-30T21:47:47.318Z,101653.66
2023-04-30T21:50:52.458Z,101645.97
2023-04-30T21:53:57.637Z,101648.59
2023-04-30T21:57:02.719Z,101653.56
2023-04-30T22:00:14.623Z,101645.97
2023-04-30T22:03:25.732Z,101651.03
2023-04-30T22:06:31.155Z,101655.38
2023-04-30T22:09:36.331Z,101655.28
2023-04-30T22:12:42.798Z,101659.63
2023-04-30T22:15:50.426Z,101657.84
2023-04-30T22:18:58.580Z,101657.84
2023-04-30T22:22:04.107Z,101658.69
2023-04-30T22:25:10.575Z,101660.38
2023-04-30T22:28:16.964Z,101661.22
2023-04-30T22:31:23.558Z,101656.22
2023-04-30T22:34:28.640Z,101657.94
2023-04-30T22:37:34.944Z,101664.72
2023-04-30T22:40:42.293Z,101657.19
2023-04-30T22:43:48.371Z,101657.09
2023-04-30T22:46:58.045Z,101648.63
2023-04-30T22:50:03.621Z,101652.94
2023-04-30T22:53:08.785Z,101665.66
2023-04-30T22:56:16.437Z,101651.25
2023-04-30T22:59:21.524Z,101655.56
2023-04-30T23:02:28.712Z,101657.16
2023-04-30T23:05:34.124Z,101656.31
2023-04-30T23:08:39.278Z,101660.56
2023-04-30T23:11:44.949Z,101652.19
2023-04-30T23:14:50.982Z,101646.16
2023-04-30T23:17:58.319Z,101647.06
2023-04-30T23:21:03.733Z,101645.38
2023-04-30T23:24:08.816Z,101647.06
2023-04-30T23:27:14.018Z,101650.53
2023-04-30T23:30:19.364Z,101649.72
2023-04-30T23:33:25.989Z,101658.16
2023-04-30T23:36:31.337Z,101640.38
2023-04-30T23:39:36.966Z,101653.13
2023-04-30T23:42:42.034Z,101645.44
2023-04-30T23:45:47.764Z,101641.25
2023-04-30T23:48:54.236Z,101648.94
2023-04-30T23:51:59.594Z,101645.53
2023-04-30T23:55:04.720Z,101653.13
2023-04-30T23:58:12.270Z,101646.34
